createdAt,value
2018-01-10T00:01:01.134Z,1012.11
2018-01-10T00:02:23.363Z,1012.11
2018-01-10T00:03:45.502Z,1012.15
2018-01-10T00:05:07.365Z,1012.15
2018-01-10T00:06:29.375Z,1012.11
2018-01-10T00:07:51.562Z,1012.14
2018-01-10T00:09:13.166Z,1012.12
2018-01-10T00:10:35.283Z,1012.12
2018-01-10T00:11:57.239Z,1012.16
2018-01-10T00:13:19.374Z,1012.19
2018-01-10T00:14:41.344Z,1012.23
2018-01-10T00:16:03.213Z,1012.25
2018-01-10T00:17:24.801Z,1012.2
2018-01-10T00:18:46.655Z,1012.24
2018-01-10T00:20:08.509Z,1012.19
2018-01-10T00:21:30.344Z,1012.16
2018-01-10T00:22:52.247Z,1012.18
2018-01-10T00:24:14.143Z,1012.18
2018-01-10T00:25:36.140Z,1012.21
2018-01-10T00:26:57.998Z,1012.18
2018-01-10T00:28:20.064Z,1012.23
2018-01-10T00:29:42.030Z,1012.2
2018-01-10T00:31:03.874Z,1012.15
2018-01-10T00:32:25.996Z,1012.24
2018-01-10T00:33:47.893Z,1012.26
2018-01-10T00:35:09.737Z,1012.29
2018-01-10T00:36:31.858Z,1012.39
2018-01-10T00:37:53.799Z,1012.46
2018-01-10T00:39:15.483Z,1012.51
2018-01-10T00:40:37.622Z,1012.53
2018-01-10T00:41:59.475Z,1012.5
2018-01-10T00:43:21.621Z,1012.53
2018-01-10T00:44:43.497Z,1012.51
2018-01-10T00:46:05.655Z,1012.42
2018-01-10T00:47:27.620Z,1012.33
2018-01-10T00:48:49.646Z,1012.33
2018-01-10T00:50:11.243Z,1012.34
2018-01-10T00:51:33.122Z,1012.33
2018-01-10T00:52:54.766Z,1012.32
2018-01-10T00:54:16.104Z,1012.32
2018-01-10T00:55:38.064Z,1012.31
2018-01-10T00:57:00.184Z,1012.33
2018-01-10T00:58:22.151Z,1012.36
2018-01-10T00:59:43.825Z,1012.44
2018-01-10T01:01:05.688Z,1012.48
2018-01-10T01:02:27.794Z,1012.46
2018-01-10T01:03:49.894Z,1012.5
2018-01-10T01:05:11.986Z,1012.44
2018-01-10T01:06:34.235Z,1012.42
2018-01-10T01:07:55.913Z,1012.42
2018-01-10T01:09:17.514Z,1012.35
2018-01-10T01:10:39.212Z,1012.36
2018-01-10T01:12:00.584Z,1012.3
2018-01-10T01:13:22.546Z,1012.3
2018-01-10T01:14:44.223Z,1012.26
2018-01-10T01:16:05.824Z,1012.27
2018-01-10T01:17:27.439Z,1012.17
2018-01-10T01:18:49.320Z,1012.26
2018-01-10T01:20:11.481Z,1012.27
2018-01-10T01:21:33.634Z,1012.24
2018-01-10T01:22:55.238Z,1012.29
2018-01-10T01:24:17.153Z,1012.27
2018-01-10T01:25:39.011Z,1012.35
2018-01-10T01:27:00.886Z,1012.31
2018-01-10T01:28:22.981Z,1012.24
2018-01-10T01:29:44.894Z,1012.22
2018-01-10T01:31:07.125Z,1012.18
2018-01-10T01:32:28.455Z,1012.16
2018-01-10T01:33:50.312Z,1012.18
2018-01-10T01:35:11.779Z,1012.1
2018-01-10T01:36:33.643Z,1012.16
2018-01-10T01:37:55.555Z,1012.21
2018-01-10T01:39:17.751Z,1012.17
2018-01-10T01:40:39.613Z,1012.2
2018-01-10T01:42:01.223Z,1012.21
2018-01-10T01:43:23.090Z,1012.28
2018-01-10T01:44:44.713Z,1012.29
2018-01-10T01:46:06.423Z,1012.27
2018-01-10T01:47:28.282Z,1012.31
2018-01-10T01:48:49.872Z,1012.25
2018-01-10T01:50:11.503Z,1012.22
2018-01-10T01:51:33.096Z,1012.24
2018-01-10T01:52:55.018Z,1012.25
2018-01-10T01:54:16.663Z,1012.22
2018-01-10T01:55:38.273Z,1012.19
2018-01-10T01:56:59.712Z,1012.18
2018-01-10T01:58:21.633Z,1012.16
2018-01-10T01:59:43.497Z,1012.18
2018-01-10T02:01:05.091Z,1012.18
2018-01-10T02:02:27.234Z,1012.16
2018-01-10T02:03:49.134Z,1012.13
2018-01-10T02:05:10.533Z,1012.17
2018-01-10T02:06:32.634Z,1012.21
2018-01-10T02:07:53.973Z,1012.22
2018-01-10T02:09:15.833Z,1012.18
2018-01-10T02:10:37.414Z,1012.2
2018-01-10T02:11:58.744Z,1012.23
2018-01-10T02:13:20.616Z,1012.23
2018-01-10T02:14:42.488Z,1012.2
2018-01-10T02:16:04.723Z,1012.16
2018-01-10T02:17:25.795Z,1012.19
2018-01-10T02:18:48.054Z,1012.21
2018-01-10T02:20:10.185Z,1012.23
2018-01-10T02:21:31.901Z,1012.18
2018-01-10T02:22:53.514Z,1012.18
2018-01-10T02:24:15.364Z,1012.18
2018-01-10T02:25:37.224Z,1012.18
2018-01-10T02:26:58.349Z,1012.21
2018-01-10T02:28:19.954Z,1012.22
2018-01-10T02:29:41.542Z,1012.2
2018-01-10T02:31:03.668Z,1012.19
2018-01-10T02:32:25.984Z,1012.14
2018-01-10T02:33:47.608Z,1012.13
2018-01-10T02:35:09.346Z,1012.1
2018-01-10T02:36:31.212Z,1012.11
2018-01-10T02:37:52.816Z,1012.13
2018-01-10T02:39:14.924Z,1012.12
2018-01-10T02:40:36.631Z,1012.05
2018-01-10T02:41:58.061Z,1012.13
2018-01-10T02:43:20.194Z,1012.1
2018-01-10T02:44:41.670Z,1012.14
2018-01-10T02:46:03.054Z,1012.05
2018-01-10T02:47:24.933Z,1012.04
2018-01-10T02:48:47.043Z,1012.03
2018-01-10T02:50:08.924Z,1012.01
2018-01-10T02:51:30.673Z,1012.01
2018-01-10T02:52:52.524Z,1012.03
2018-01-10T02:54:14.485Z,1012.05
2018-01-10T02:55:36.094Z,1012
2018-01-10T02:56:58.226Z,1012.03
2018-01-10T02:58:19.536Z,1012.06
2018-01-10T02:59:41.218Z,1012.05
2018-01-10T03:01:02.805Z,1012.04
2018-01-10T03:02:24.750Z,1012.04
2018-01-10T03:03:46.355Z,1012.06
2018-01-10T03:05:07.694Z,1011.96
2018-01-10T03:06:29.038Z,1011.93
2018-01-10T03:07:50.642Z,1011.87
2018-01-10T03:09:12.554Z,1011.8
2018-01-10T03:10:34.466Z,1011.83
2018-01-10T03:11:56.557Z,1011.81
2018-01-10T03:13:18.390Z,1011.77
2018-01-10T03:14:40.504Z,1011.79
2018-01-10T03:16:02.346Z,1011.83
2018-01-10T03:17:24.353Z,1011.76
2018-01-10T03:18:46.060Z,1011.8
2018-01-10T03:20:07.922Z,1011.7
2018-01-10T03:21:29.534Z,1011.7
2018-01-10T03:22:51.384Z,1011.67
2018-01-10T03:24:12.986Z,1011.67
2018-01-10T03:25:34.601Z,1011.72
2018-01-10T03:26:56.852Z,1011.73
2018-01-10T03:28:18.637Z,1011.72
2018-01-10T03:29:40.997Z,1011.68
2018-01-10T03:31:03.245Z,1011.68
2018-01-10T03:32:24.941Z,1011.67
2018-01-10T03:33:46.573Z,1011.65
2018-01-10T03:35:07.924Z,1011.69
2018-01-10T03:36:30.044Z,1011.67
2018-01-10T03:37:52.253Z,1011.69
2018-01-10T03:39:13.897Z,1011.66
2018-01-10T03:40:36.181Z,1011.64
2018-01-10T03:41:58.036Z,1011.69
2018-01-10T03:43:20.150Z,1011.66
2018-01-10T03:44:41.537Z,1011.66
2018-01-10T03:46:03.164Z,1011.65
2018-01-10T03:47:25.284Z,1011.66
2018-01-10T03:48:46.893Z,1011.68
2018-01-10T03:50:08.746Z,1011.75
2018-01-10T03:51:30.492Z,1011.74
2018-01-10T03:52:52.340Z,1011.73
2018-01-10T03:54:14.061Z,1011.71
2018-01-10T03:55:36.197Z,1011.72
2018-01-10T03:56:58.038Z,1011.71
2018-01-10T03:58:19.386Z,1011.71
2018-01-10T03:59:41.008Z,1011.71
2018-01-10T04:01:02.882Z,1011.66
2018-01-10T04:02:24.754Z,1011.68
2018-01-10T04:03:46.093Z,1011.68
2018-01-10T04:05:08.054Z,1011.7
2018-01-10T04:06:29.397Z,1011.68
2018-01-10T04:07:51.528Z,1011.68
2018-01-10T04:09:13.111Z,1011.72
2018-01-10T04:10:34.733Z,1011.71
2018-01-10T04:11:56.385Z,1011.69
2018-01-10T04:13:17.975Z,1011.73
2018-01-10T04:14:39.586Z,1011.71
2018-01-10T04:16:01.714Z,1011.72
2018-01-10T04:17:23.871Z,1011.71
2018-01-10T04:18:45.720Z,1011.68
2018-01-10T04:20:07.830Z,1011.7
2018-01-10T04:21:29.424Z,1011.68
2018-01-10T04:22:51.053Z,1011.7
2018-01-10T04:24:12.632Z,1011.73
2018-01-10T04:25:34.525Z,1011.72
2018-01-10T04:26:56.644Z,1011.73
2018-01-10T04:28:18.535Z,1011.71
2018-01-10T04:29:40.654Z,1011.71
2018-01-10T04:31:02.093Z,1011.72
2018-01-10T04:32:23.966Z,1011.7
2018-01-10T04:33:45.894Z,1011.71
2018-01-10T04:35:08.011Z,1011.73
2018-01-10T04:36:29.631Z,1011.72
2018-01-10T04:37:51.315Z,1011.71
2018-01-10T04:39:12.914Z,1011.68
2018-01-10T04:40:34.587Z,1011.74
2018-01-10T04:41:56.293Z,1011.7
2018-01-10T04:43:17.632Z,1011.7
2018-01-10T04:44:39.249Z,1011.67
2018-01-10T04:46:00.954Z,1011.66
2018-01-10T04:47:22.546Z,1011.68
2018-01-10T04:48:44.415Z,1011.66
2018-01-10T04:50:06.607Z,1011.66
2018-01-10T04:51:29.050Z,1011.57
2018-01-10T04:52:51.183Z,1011.62
2018-01-10T04:54:12.764Z,1011.64
2018-01-10T04:55:34.277Z,1011.67
2018-01-10T04:56:56.436Z,1011.63
2018-01-10T04:58:18.283Z,1011.62
2018-01-10T04:59:40.138Z,1011.6
2018-01-10T05:01:01.993Z,1011.62
2018-01-10T05:02:23.935Z,1011.6
2018-01-10T05:03:45.896Z,1011.59
2018-01-10T05:05:07.507Z,1011.55
2018-01-10T05:06:29.624Z,1011.55
2018-01-10T05:07:50.954Z,1011.56
2018-01-10T05:09:12.774Z,1011.56
2018-01-10T05:10:34.115Z,1011.57
2018-01-10T05:11:56.035Z,1011.57
2018-01-10T05:13:17.764Z,1011.59
2018-01-10T05:14:39.665Z,1011.58
2018-01-10T05:16:01.728Z,1011.59
2018-01-10T05:17:23.185Z,1011.57
2018-01-10T05:18:45.333Z,1011.59
2018-01-10T05:20:07.520Z,1011.61
2018-01-10T05:21:29.436Z,1011.65
2018-01-10T05:22:51.314Z,1011.65
2018-01-10T05:24:13.159Z,1011.69
2018-01-10T05:25:34.738Z,1011.69
2018-01-10T05:26:56.333Z,1011.66
2018-01-10T05:28:18.218Z,1011.68
2018-01-10T05:29:39.806Z,1011.67
2018-01-10T05:31:01.693Z,1011.75
2018-01-10T05:32:23.639Z,1011.73
2018-01-10T05:33:45.327Z,1011.75
2018-01-10T05:35:07.178Z,1011.73
2018-01-10T05:36:28.929Z,1011.78
2018-01-10T05:37:50.538Z,1011.78
2018-01-10T05:39:12.145Z,1011.76
2018-01-10T05:40:34.301Z,1011.81
2018-01-10T05:41:56.484Z,1011.82
2018-01-10T05:43:18.092Z,1011.8
2018-01-10T05:44:39.995Z,1011.79
2018-01-10T05:46:02.079Z,1011.77
2018-01-10T05:47:23.674Z,1011.81
2018-01-10T05:48:45.135Z,1011.74
2018-01-10T05:50:06.864Z,1011.78
2018-01-10T05:51:29.366Z,1011.76
2018-01-10T05:52:50.951Z,1011.8
2018-01-10T05:54:12.811Z,1011.81
2018-01-10T05:55:34.955Z,1011.79
2018-01-10T05:56:57.080Z,1011.78
2018-01-10T05:58:18.956Z,1011.78
2018-01-10T05:59:41.076Z,1011.72
2018-01-10T06:01:03.327Z,1011.76
2018-01-10T06:02:25.496Z,1011.79
2018-01-10T06:03:47.365Z,1011.75
2018-01-10T06:05:09.413Z,1011.74
2018-01-10T06:06:31.447Z,1011.75
2018-01-10T06:07:53.644Z,1011.71
2018-01-10T06:09:15.916Z,1011.71
2018-01-10T06:10:38.041Z,1011.73
2018-01-10T06:11:59.404Z,1011.68
2018-01-10T06:13:21.513Z,1011.69
2018-01-10T06:14:43.138Z,1011.65
2018-01-10T06:16:05.174Z,1011.59
2018-01-10T06:17:27.374Z,1011.65
2018-01-10T06:18:49.504Z,1011.67
2018-01-10T06:20:11.135Z,1011.6
2018-01-10T06:21:33.094Z,1011.67
2018-01-10T06:22:54.712Z,1011.68
2018-01-10T06:24:16.564Z,1011.67
2018-01-10T06:25:38.314Z,1011.67
2018-01-10T06:26:59.923Z,1011.69
2018-01-10T06:28:21.263Z,1011.72
2018-01-10T06:29:42.913Z,1011.67
2018-01-10T06:31:05.133Z,1011.66
2018-01-10T06:32:26.794Z,1011.7
2018-01-10T06:33:48.705Z,1011.7
2018-01-10T06:35:10.813Z,1011.71
2018-01-10T06:36:32.416Z,1011.68
2018-01-10T06:37:54.350Z,1011.65
2018-01-10T06:39:15.973Z,1011.64
2018-01-10T06:40:37.586Z,1011.66
2018-01-10T06:41:59.723Z,1011.65
2018-01-10T06:43:21.848Z,1011.64
2018-01-10T06:44:44.004Z,1011.68
2018-01-10T06:46:05.871Z,1011.64
2018-01-10T06:47:27.473Z,1011.67
2018-01-10T06:48:49.443Z,1011.63
2018-01-10T06:50:11.631Z,1011.61
2018-01-10T06:51:33.252Z,1011.59
2018-01-10T06:52:55.229Z,1011.58
2018-01-10T06:54:16.996Z,1011.55
2018-01-10T06:55:38.934Z,1011.53
2018-01-10T06:57:00.426Z,1011.57
2018-01-10T06:58:22.283Z,1011.58
2018-01-10T06:59:43.893Z,1011.56
2018-01-10T07:01:06.172Z,1011.59
2018-01-10T07:02:27.830Z,1011.58
2018-01-10T07:03:49.542Z,1011.56
2018-01-10T07:05:10.906Z,1011.57
2018-01-10T07:06:33.033Z,1011.55
2018-01-10T07:07:54.918Z,1011.56
2018-01-10T07:09:16.263Z,1011.56
2018-01-10T07:10:38.158Z,1011.55
2018-01-10T07:11:59.546Z,1011.57
2018-01-10T07:13:21.411Z,1011.58
2018-01-10T07:14:43.671Z,1011.6
2018-01-10T07:16:05.258Z,1011.62
2018-01-10T07:17:26.670Z,1011.66
2018-01-10T07:18:48.011Z,1011.68
2018-01-10T07:20:09.887Z,1011.7
2018-01-10T07:21:31.773Z,1011.71
2018-01-10T07:22:53.704Z,1011.72
2018-01-10T07:24:15.413Z,1011.71
2018-01-10T07:25:37.302Z,1011.71
2018-01-10T07:26:59.165Z,1011.76
2018-01-10T07:28:21.138Z,1011.73
2018-01-10T07:29:42.726Z,1011.83
2018-01-10T07:31:04.319Z,1011.82
2018-01-10T07:32:26.286Z,1011.8
2018-01-10T07:33:48.235Z,1011.83
2018-01-10T07:35:09.917Z,1011.83
2018-01-10T07:36:31.492Z,1011.84
2018-01-10T07:37:53.103Z,1011.84
2018-01-10T07:39:14.809Z,1011.83
2018-01-10T07:40:36.999Z,1011.83
2018-01-10T07:41:58.599Z,1011.79
2018-01-10T07:43:20.475Z,1011.83
2018-01-10T07:44:42.127Z,1011.83
2018-01-10T07:46:04.012Z,1011.84
2018-01-10T07:47:26.145Z,1011.9
2018-01-10T07:48:48.004Z,1011.85
2018-01-10T07:50:09.624Z,1011.91
2018-01-10T07:51:31.851Z,1011.9
2018-01-10T07:52:53.455Z,1011.93
2018-01-10T07:54:15.333Z,1011.97
2018-01-10T07:55:37.662Z,1011.93
2018-01-10T07:56:59.645Z,1011.96
2018-01-10T07:58:21.781Z,1011.99
2018-01-10T07:59:43.643Z,1011.99
2018-01-10T08:01:05.006Z,1011.99
2018-01-10T08:02:26.597Z,1011.93
2018-01-10T08:03:48.431Z,1011.96
2018-01-10T08:05:10.044Z,1011.96
2018-01-10T08:06:32.167Z,1011.97
2018-01-10T08:07:54.001Z,1011.94
2018-01-10T08:09:15.603Z,1012
2018-01-10T08:10:37.493Z,1011.97
2018-01-10T08:11:59.087Z,1011.97
2018-01-10T08:13:20.681Z,1011.96
2018-01-10T08:14:42.607Z,1011.96
2018-01-10T08:16:04.792Z,1011.91
2018-01-10T08:17:26.710Z,1011.9
2018-01-10T08:18:49.011Z,1011.9
2018-01-10T08:20:10.622Z,1011.9
2018-01-10T08:21:32.288Z,1011.9
2018-01-10T08:22:53.963Z,1011.88
2018-01-10T08:24:15.843Z,1011.87
2018-01-10T08:25:36.952Z,1011.85
2018-01-10T08:26:58.674Z,1011.88
2018-01-10T08:28:20.303Z,1011.86
2018-01-10T08:29:42.202Z,1011.88
2018-01-10T08:31:03.810Z,1011.91
2018-01-10T08:32:25.774Z,1011.87
2018-01-10T08:33:47.383Z,1011.89
2018-01-10T08:35:09.304Z,1011.9
2018-01-10T08:36:31.190Z,1011.9
2018-01-10T08:37:52.796Z,1011.94
2018-01-10T08:39:14.640Z,1011.96
2018-01-10T08:40:36.004Z,1012.04
2018-01-10T08:41:57.878Z,1012
2018-01-10T08:43:19.772Z,1011.98
2018-01-10T08:44:41.499Z,1011.99
2018-01-10T08:46:03.719Z,1011.96
2018-01-10T08:47:25.384Z,1011.99
2018-01-10T08:48:47.294Z,1011.96
2018-01-10T08:50:09.126Z,1011.97
2018-01-10T08:51:31.119Z,1011.97
2018-01-10T08:52:53.234Z,1011.95
2018-01-10T08:54:14.933Z,1011.89
2018-01-10T08:55:36.949Z,1011.87
2018-01-10T08:56:58.576Z,1011.81
2018-01-10T08:58:20.175Z,1011.91
2018-01-10T08:59:42.284Z,1011.84
2018-01-10T09:01:04.408Z,1011.87
2018-01-10T09:02:26.299Z,1011.89
2018-01-10T09:03:48.622Z,1011.95
2018-01-10T09:05:09.502Z,1011.95
2018-01-10T09:06:31.360Z,1011.96
2018-01-10T09:07:53.128Z,1011.97
2018-01-10T09:09:15.042Z,1011.95
2018-01-10T09:10:37.167Z,1011.97
2018-01-10T09:11:58.913Z,1011.94
2018-01-10T09:13:20.784Z,1011.98
2018-01-10T09:14:42.659Z,1011.98
2018-01-10T09:16:04.800Z,1012.03
2018-01-10T09:17:26.409Z,1012.06
2018-01-10T09:18:48.030Z,1012.04
2018-01-10T09:20:09.936Z,1012.04
2018-01-10T09:21:31.259Z,1012.04
2018-01-10T09:22:52.605Z,1012
2018-01-10T09:24:14.749Z,1012.01
2018-01-10T09:25:36.646Z,1012.04
2018-01-10T09:26:58.297Z,1012.04
2018-01-10T09:28:20.163Z,1012
2018-01-10T09:29:42.066Z,1011.97
2018-01-10T09:31:04.334Z,1012.02
2018-01-10T09:32:26.232Z,1011.98
2018-01-10T09:33:48.115Z,1012.05
2018-01-10T09:35:10.296Z,1012.05
2018-01-10T09:36:31.660Z,1012.07
2018-01-10T09:37:53.267Z,1012.05
2018-01-10T09:39:15.543Z,1012.07
2018-01-10T09:40:37.397Z,1012.05
2018-01-10T09:41:59.329Z,1012.05
2018-01-10T09:43:20.708Z,1012.07
2018-01-10T09:44:42.578Z,1012.08
2018-01-10T09:46:04.175Z,1012.04
2018-01-10T09:47:25.774Z,1012
2018-01-10T09:48:47.622Z,1011.99
2018-01-10T09:50:09.483Z,1012.03
2018-01-10T09:51:30.831Z,1012.04
2018-01-10T09:52:52.442Z,1012.03
2018-01-10T09:54:14.488Z,1012.07
2018-01-10T09:55:36.365Z,1012.04
2018-01-10T09:56:58.215Z,1012
2018-01-10T09:58:20.346Z,1011.99
2018-01-10T09:59:41.953Z,1012.02
2018-01-10T10:01:03.763Z,1012.02
2018-01-10T10:02:26.006Z,1011.99
2018-01-10T10:03:48.116Z,1011.98
2018-01-10T10:05:09.756Z,1011.96
2018-01-10T10:06:31.330Z,1011.96
2018-01-10T10:07:52.966Z,1011.96
2018-01-10T10:09:14.591Z,1011.96
2018-01-10T10:10:36.474Z,1011.94
2018-01-10T10:11:58.388Z,1011.9
2018-01-10T10:13:19.974Z,1011.93
2018-01-10T10:14:41.319Z,1011.91
2018-01-10T10:16:02.927Z,1011.86
2018-01-10T10:17:24.685Z,1011.86
2018-01-10T10:18:46.543Z,1011.86
2018-01-10T10:20:08.234Z,1011.9
2018-01-10T10:21:29.890Z,1011.87
2018-01-10T10:22:51.733Z,1011.86
2018-01-10T10:24:13.684Z,1011.86
2018-01-10T10:25:35.564Z,1011.87
2018-01-10T10:26:56.966Z,1011.88
2018-01-10T10:28:18.831Z,1011.86
2018-01-10T10:29:40.758Z,1011.85
2018-01-10T10:31:02.873Z,1011.86
2018-01-10T10:32:24.501Z,1011.85
2018-01-10T10:33:45.904Z,1011.86
2018-01-10T10:35:08.096Z,1011.81
2018-01-10T10:36:30.230Z,1011.81
2018-01-10T10:37:52.102Z,1011.84
2018-01-10T10:39:13.786Z,1011.8
2018-01-10T10:40:35.445Z,1011.86
2018-01-10T10:41:57.421Z,1011.84
2018-01-10T10:43:19.305Z,1011.83
2018-01-10T10:44:41.591Z,1011.83
2018-01-10T10:46:03.264Z,1011.88
2018-01-10T10:47:24.882Z,1011.93
2018-01-10T10:48:46.774Z,1011.89
2018-01-10T10:50:08.393Z,1011.89
2018-01-10T10:51:30.398Z,1011.89
2018-01-10T10:52:52.497Z,1011.91
2018-01-10T10:54:14.163Z,1011.9
2018-01-10T10:55:35.787Z,1011.86
2018-01-10T10:56:57.135Z,1011.93
2018-01-10T10:58:19.046Z,1011.94
2018-01-10T10:59:40.984Z,1011.93
2018-01-10T11:01:02.331Z,1011.95
2018-01-10T11:02:24.448Z,1011.9
2018-01-10T11:03:46.094Z,1011.88
2018-01-10T11:05:07.984Z,1011.86
2018-01-10T11:06:29.926Z,1011.86
2018-01-10T11:07:51.794Z,1011.85
2018-01-10T11:09:13.673Z,1011.84
2018-01-10T11:10:35.268Z,1011.78
2018-01-10T11:11:57.125Z,1011.82
2018-01-10T11:13:18.462Z,1011.83
2018-01-10T11:14:39.855Z,1011.88
2018-01-10T11:16:01.732Z,1011.83
2018-01-10T11:17:23.454Z,1011.8
2018-01-10T11:18:45.916Z,1011.86
2018-01-10T11:20:07.250Z,1011.79
2018-01-10T11:21:28.966Z,1011.76
2018-01-10T11:22:50.579Z,1011.8
2018-01-10T11:24:12.718Z,1011.75
2018-01-10T11:25:34.600Z,1011.76
2018-01-10T11:26:56.757Z,1011.78
2018-01-10T11:28:18.935Z,1011.75
2018-01-10T11:29:40.827Z,1011.75
2018-01-10T11:31:02.702Z,1011.74
2018-01-10T11:32:24.339Z,1011.71
2018-01-10T11:33:45.945Z,1011.72
2018-01-10T11:35:08.091Z,1011.65
2018-01-10T11:36:29.678Z,1011.66
2018-01-10T11:37:51.293Z,1011.68
2018-01-10T11:39:12.963Z,1011.63
2018-01-10T11:40:34.936Z,1011.62
2018-01-10T11:41:56.558Z,1011.6
2018-01-10T11:43:18.707Z,1011.55
2018-01-10T11:44:40.604Z,1011.59
2018-01-10T11:46:02.761Z,1011.54
2018-01-10T11:47:24.651Z,1011.57
2018-01-10T11:48:46.816Z,1011.55
2018-01-10T11:50:08.933Z,1011.53
2018-01-10T11:51:30.822Z,1011.49
2018-01-10T11:52:52.485Z,1011.55
2018-01-10T11:54:14.399Z,1011.51
2018-01-10T11:55:36.041Z,1011.55
2018-01-10T11:56:57.904Z,1011.54
2018-01-10T11:58:19.914Z,1011.51
2018-01-10T11:59:42.093Z,1011.51
2018-01-10T12:01:03.952Z,1011.47
2018-01-10T12:02:25.538Z,1011.43
2018-01-10T12:03:47.152Z,1011.41
2018-01-10T12:05:08.760Z,1011.41
2018-01-10T12:06:30.643Z,1011.38
2018-01-10T12:07:52.609Z,1011.35
2018-01-10T12:09:13.953Z,1011.42
2018-01-10T12:10:35.650Z,1011.41
2018-01-10T12:11:57.761Z,1011.42
2018-01-10T12:13:19.348Z,1011.39
2018-01-10T12:14:41.602Z,1011.41
2018-01-10T12:16:03.293Z,1011.39
2018-01-10T12:17:25.268Z,1011.4
2018-01-10T12:18:46.880Z,1011.38
2018-01-10T12:20:08.747Z,1011.41
2018-01-10T12:21:30.087Z,1011.37
2018-01-10T12:22:52.213Z,1011.41
2018-01-10T12:24:14.172Z,1011.39
2018-01-10T12:25:36.037Z,1011.42
2018-01-10T12:26:57.640Z,1011.41
2018-01-10T12:28:18.990Z,1011.36
2018-01-10T12:29:40.880Z,1011.41
2018-01-10T12:31:03.081Z,1011.38
2018-01-10T12:32:24.954Z,1011.39
2018-01-10T12:33:46.528Z,1011.38
2018-01-10T12:35:08.237Z,1011.34
2018-01-10T12:36:30.132Z,1011.26
2018-01-10T12:37:52.006Z,1011.32
2018-01-10T12:39:14.163Z,1011.23
2018-01-10T12:40:36.645Z,1011.25
2018-01-10T12:41:58.615Z,1011.25
2018-01-10T12:43:20.590Z,1011.22
2018-01-10T12:44:42.483Z,1011.23
2018-01-10T12:46:04.515Z,1011.24
2018-01-10T12:47:26.120Z,1011.26
2018-01-10T12:48:48.282Z,1011.26
2018-01-10T12:50:10.255Z,1011.24
2018-01-10T12:51:31.948Z,1011.24
2018-01-10T12:52:54.125Z,1011.23
2018-01-10T12:54:15.310Z,1011.21
2018-01-10T12:55:37.182Z,1011.22
2018-01-10T12:56:58.777Z,1011.22
2018-01-10T12:58:20.920Z,1011.22
2018-01-10T12:59:42.560Z,1011.21
2018-01-10T13:01:04.431Z,1011.2
2018-01-10T13:02:26.112Z,1011.24
2018-01-10T13:03:48.463Z,1011.24
2018-01-10T13:05:10.481Z,1011.24
2018-01-10T13:06:32.124Z,1011.23
2018-01-10T13:07:54.055Z,1011.26
2018-01-10T13:09:16.380Z,1011.29
2018-01-10T13:10:38.052Z,1011.33
2018-01-10T13:12:00.279Z,1011.28
2018-01-10T13:13:22.180Z,1011.34
2018-01-10T13:14:43.542Z,1011.31
2018-01-10T13:16:05.148Z,1011.36
2018-01-10T13:17:27.046Z,1011.38
2018-01-10T13:18:49.182Z,1011.38
2018-01-10T13:20:11.084Z,1011.35
2018-01-10T13:21:32.693Z,1011.37
2018-01-10T13:22:54.850Z,1011.39
2018-01-10T13:24:16.752Z,1011.39
2018-01-10T13:25:38.736Z,1011.41
2018-01-10T13:27:00.861Z,1011.4
2018-01-10T13:28:22.831Z,1011.39
2018-01-10T13:29:45.020Z,1011.4
2018-01-10T13:31:06.902Z,1011.39
2018-01-10T13:32:28.551Z,1011.4
2018-01-10T13:33:50.182Z,1011.4
2018-01-10T13:35:12.420Z,1011.38
2018-01-10T13:36:34.025Z,1011.38
2018-01-10T13:37:56.071Z,1011.41
2018-01-10T13:39:17.996Z,1011.38
2018-01-10T13:40:39.335Z,1011.32
2018-01-10T13:42:00.732Z,1011.33
2018-01-10T13:43:23.263Z,1011.34
2018-01-10T13:44:45.421Z,1011.39
2018-01-10T13:46:07.310Z,1011.38
2018-01-10T13:47:29.016Z,1011.4
2018-01-10T13:48:51.131Z,1011.42
2018-01-10T13:50:13.312Z,1011.41
2018-01-10T13:51:34.750Z,1011.38
2018-01-10T13:52:56.682Z,1011.43
2018-01-10T13:54:18.154Z,1011.4
2018-01-10T13:55:40.453Z,1011.39
2018-01-10T13:57:02.173Z,1011.42
2018-01-10T13:58:24.414Z,1011.38
2018-01-10T13:59:46.394Z,1011.44
2018-01-10T14:01:08.575Z,1011.43
2018-01-10T14:02:30.472Z,1011.41
2018-01-10T14:03:52.366Z,1011.43
2018-01-10T14:05:14.489Z,1011.4
2018-01-10T14:06:36.398Z,1011.45
2018-01-10T14:07:58.551Z,1011.45
2018-01-10T14:09:20.408Z,1011.49
2018-01-10T14:10:42.551Z,1011.49
2018-01-10T14:12:04.664Z,1011.46
2018-01-10T14:13:26.078Z,1011.5
2018-01-10T14:14:47.967Z,1011.46
2018-01-10T14:16:09.906Z,1011.47
2018-01-10T14:17:31.797Z,1011.49
2018-01-10T14:18:53.946Z,1011.43
2018-01-10T14:20:16.061Z,1011.43
2018-01-10T14:21:37.486Z,1011.44
2018-01-10T14:22:59.395Z,1011.46
2018-01-10T14:24:21.298Z,1011.5
2018-01-10T14:25:43.228Z,1011.5
2018-01-10T14:27:05.562Z,1011.48
2018-01-10T14:28:27.721Z,1011.49
2018-01-10T14:29:49.726Z,1011.51
2018-01-10T14:31:11.612Z,1011.51
2018-01-10T14:32:33.214Z,1011.49
2018-01-10T14:33:55.133Z,1011.51
2018-01-10T14:35:16.755Z,1011.54
2018-01-10T14:36:38.733Z,1011.58
2018-01-10T14:38:00.902Z,1011.6
2018-01-10T14:39:22.772Z,1011.6
2018-01-10T14:40:44.666Z,1011.62
2018-01-10T14:42:06.883Z,1011.61
2018-01-10T14:43:29.127Z,1011.61
2018-01-10T14:44:51.005Z,1011.66
2018-01-10T14:46:12.964Z,1011.68
2018-01-10T14:47:34.862Z,1011.68
2018-01-10T14:48:57.149Z,1011.66
2018-01-10T14:50:18.797Z,1011.68
2018-01-10T14:51:40.712Z,1011.68
2018-01-10T14:53:02.991Z,1011.65
2018-01-10T14:54:24.883Z,1011.62
2018-01-10T14:55:46.532Z,1011.62
2018-01-10T14:57:08.767Z,1011.63
2018-01-10T14:58:30.636Z,1011.64
2018-01-10T14:59:52.318Z,1011.65
2018-01-10T15:01:14.475Z,1011.68
2018-01-10T15:02:36.625Z,1011.71
2018-01-10T15:03:58.513Z,1011.69
2018-01-10T15:05:20.208Z,1011.72
2018-01-10T15:06:42.174Z,1011.75
2018-01-10T15:08:04.344Z,1011.74
2018-01-10T15:09:26.553Z,1011.74
2018-01-10T15:10:48.816Z,1011.75
2018-01-10T15:12:10.571Z,1011.8
2018-01-10T15:13:32.515Z,1011.82
2018-01-10T15:14:54.503Z,1011.81
2018-01-10T15:16:16.409Z,1011.82
2018-01-10T15:17:38.551Z,1011.84
2018-01-10T15:19:00.733Z,1011.86
2018-01-10T15:20:22.905Z,1011.82
2018-01-10T15:21:44.521Z,1011.84
2018-01-10T15:23:06.712Z,1011.85
2018-01-10T15:24:28.602Z,1011.89
2018-01-10T15:25:50.926Z,1011.87
2018-01-10T15:27:12.817Z,1011.91
2018-01-10T15:28:34.715Z,1011.9
2018-01-10T15:29:56.804Z,1011.92
2018-01-10T15:31:18.941Z,1011.96
2018-01-10T15:32:41.145Z,1011.93
2018-01-10T15:34:03.304Z,1011.95
2018-01-10T15:35:25.483Z,1011.94
2018-01-10T15:36:47.530Z,1011.94
2018-01-10T15:38:09.703Z,1011.96
2018-01-10T15:39:31.865Z,1011.98
2018-01-10T15:40:54.055Z,1011.99
2018-01-10T15:42:16.214Z,1011.98
2018-01-10T15:43:38.111Z,1011.98
2018-01-10T15:45:00.391Z,1012
2018-01-10T15:46:22.372Z,1012.02
2018-01-10T15:47:44.513Z,1011.99
2018-01-10T15:49:06.732Z,1011.99
2018-01-10T15:50:28.998Z,1012.01
2018-01-10T15:51:51.146Z,1011.96
2018-01-10T15:53:13.332Z,1011.98
2018-01-10T15:54:35.703Z,1011.97
2018-01-10T15:55:57.883Z,1012
2018-01-10T15:57:20.295Z,1012
2018-01-10T15:58:42.188Z,1011.96
2018-01-10T16:00:04.376Z,1011.97
2018-01-10T16:01:26.014Z,1012.01
2018-01-10T16:02:48.228Z,1012.07
2018-01-10T16:04:10.412Z,1012.07
2018-01-10T16:05:32.367Z,1012.07
2018-01-10T16:06:54.623Z,1012.14
2018-01-10T16:08:16.523Z,1012.16
2018-01-10T16:09:38.932Z,1012.15
2018-01-10T16:11:00.873Z,1012.15
2018-01-10T16:12:23.037Z,1012.12
2018-01-10T16:13:45.353Z,1012.1
2018-01-10T16:15:07.511Z,1012.12
2018-01-10T16:16:29.402Z,1012.12
2018-01-10T16:17:51.281Z,1012.14
2018-01-10T16:19:13.148Z,1012.11
2018-01-10T16:20:35.304Z,1012.13
2018-01-10T16:21:57.631Z,1012.15
2018-01-10T16:23:19.791Z,1012.16
2018-01-10T16:24:42.062Z,1012.17
2018-01-10T16:26:04.203Z,1012.19
2018-01-10T16:27:26.412Z,1012.17
2018-01-10T16:28:48.458Z,1012.22
2018-01-10T16:30:10.930Z,1012.16
2018-01-10T16:31:33.081Z,1012.22
2018-01-10T16:32:54.708Z,1012.19
2018-01-10T16:34:16.708Z,1012.19